Time;durP1;ratioP1;P1;durP2;ratioP2;P2;SDS_P1;SDS_P2;PMS_P1;PMS_P2;Temp;Humidity;BMP_temperature;BMP_pressure;BME280_temperature;BME280_humidity;BME280_pressure;Samples;Min_cycle;Max_cycle;Signal;HPM_P1;HPM_P2
2023/12/07 00:01:24;;;;;;;97.27;38.83;;;1.40;99.90;;;;;;4986964;28;21104;-68
2023/12/07 00:03:52;;;;;;;85.63;35.07;;;1.40;99.90;;;;;;4984001;28;20777;-67
2023/12/07 00:06:20;;;;;;;77.33;35.63;;;1.50;99.90;;;;;;4986905;28;20957;-67
2023/12/07 00:08:48;;;;;;;90.00;38.47;;;1.50;99.90;;;;;;4986350;28;20489;-67
2023/12/07 00:11:16;;;;;;;79.37;36.27;;;1.50;99.90;;;;;;4985264;28;20509;-67
2023/12/07 00:13:44;;;;;;;72.53;35.17;;;1.50;99.90;;;;;;4986534;28;20741;-67
2023/12/07 00:16:12;;;;;;;85.33;37.07;;;1.50;99.90;;;;;;4983193;28;20589;-67
2023/12/07 00:18:41;;;;;;;81.10;37.10;;;1.50;99.90;;;;;;4984867;28;20495;-67
2023/12/07 00:21:10;;;;;;;73.73;34.10;;;1.50;99.90;;;;;;4985309;28;20469;-67
2023/12/07 00:23:38;;;;;;;75.03;35.97;;;1.50;99.90;;;;;;4980275;28;20499;-67
2023/12/07 00:26:06;;;;;;;74.43;35.10;;;1.40;99.90;;;;;;4983454;28;20578;-67
2023/12/07 00:28:34;;;;;;;78.07;38.37;;;1.40;99.90;;;;;;4987837;28;20582;-67
2023/12/07 00:31:02;;;;;;;83.33;37.37;;;1.40;99.90;;;;;;4985112;28;20484;-67
2023/12/07 00:33:30;;;;;;;86.73;38.40;;;1.40;99.90;;;;;;4988160;28;20468;-67
2023/12/07 00:36:00;;;;;;;79.57;37.87;;;1.40;99.90;;;;;;4988907;28;20571;-67
2023/12/07 00:38:28;;;;;;;75.20;35.80;;;1.40;99.90;;;;;;4980092;28;21060;-67
2023/12/07 00:40:56;;;;;;;83.83;38.13;;;1.50;99.90;;;;;;4980082;28;20477;-67
2023/12/07 00:43:24;;;;;;;82.17;37.30;;;1.50;99.90;;;;;;5002565;28;20600;-68
2023/12/07 00:45:52;;;;;;;74.67;37.17;;;1.40;99.90;;;;;;5014588;28;20476;-68
2023/12/07 00:48:20;;;;;;;77.00;33.83;;;1.50;99.90;;;;;;4987928;28;20504;-67
2023/12/07 00:50:48;;;;;;;79.10;39.03;;;1.50;99.90;;;;;;4987234;28;20468;-67
2023/12/07 00:53:17;;;;;;;84.80;38.80;;;1.50;99.90;;;;;;4980732;28;20967;-67
2023/12/07 00:55:45;;;;;;;77.50;35.03;;;1.40;99.90;;;;;;4986065;28;20590;-67
2023/12/07 00:58:13;;;;;;;71.43;36.70;;;1.40;99.90;;;;;;4993330;28;20481;-67
2023/12/07 01:00:41;;;;;;;80.80;38.87;;;1.50;99.90;;;;;;4993059;28;20472;-67
2023/12/07 01:03:10;;;;;;;77.50;37.80;;;1.50;99.90;;;;;;4992921;28;20523;-67
2023/12/07 01:05:38;;;;;;;73.70;36.80;;;1.50;99.90;;;;;;4994288;28;20855;-67
2023/12/07 01:08:09;;;;;;;71.90;33.70;;;1.50;99.90;;;;;;4995700;28;20860;-67
2023/12/07 01:10:38;;;;;;;73.13;37.07;;;1.50;99.90;;;;;;4993218;28;20527;-67
2023/12/07 01:13:06;;;;;;;71.87;36.63;;;1.50;99.90;;;;;;4998455;28;20468;-67
2023/12/07 01:15:34;;;;;;;74.63;36.70;;;1.50;99.90;;;;;;4991509;28;20583;-67
2023/12/07 01:18:03;;;;;;;66.50;34.73;;;1.50;99.90;;;;;;4987268;28;20840;-67
2023/12/07 01:20:31;;;;;;;70.63;35.57;;;1.50;99.90;;;;;;4981024;28;20480;-67
2023/12/07 01:22:59;;;;;;;67.20;35.20;;;1.50;99.90;;;;;;4991481;28;20827;-67
2023/12/07 01:25:27;;;;;;;76.03;34.83;;;1.50;99.90;;;;;;4992083;28;21020;-67
2023/12/07 01:27:56;;;;;;;69.53;34.10;;;1.50;99.90;;;;;;4984288;28;20488;-67
2023/12/07 01:30:24;;;;;;;72.60;35.10;;;1.50;99.90;;;;;;4990955;28;20538;-67
2023/12/07 01:32:52;;;;;;;65.97;33.80;;;1.50;99.90;;;;;;4983263;28;20487;-67
2023/12/07 01:35:21;;;;;;;71.00;35.87;;;1.50;99.90;;;;;;4983705;28;20461;-68
2023/12/07 01:37:49;;;;;;;68.60;35.70;;;1.50;99.90;;;;;;4988349;28;21017;-67
2023/12/07 01:40:17;;;;;;;72.63;36.80;;;1.50;99.90;;;;;;4988817;28;20478;-67
2023/12/07 01:42:51;;;;;;;68.53;34.10;;;1.50;99.90;;;;;;4985163;28;20464;-67
2023/12/07 01:45:21;;;;;;;67.50;34.10;;;1.50;99.90;;;;;;4985006;28;20506;-67
2023/12/07 01:47:51;;;;;;;66.70;35.17;;;1.50;99.90;;;;;;4992185;28;20485;-67
2023/12/07 01:50:23;;;;;;;66.90;33.80;;;1.50;99.90;;;;;;4989288;28;20497;-67
2023/12/07 01:52:57;;;;;;;65.57;33.37;;;1.50;99.90;;;;;;4991966;28;20635;-68
2023/12/07 01:55:26;;;;;;;65.30;34.30;;;1.50;99.90;;;;;;4994895;28;21161;-68
2023/12/07 01:57:54;;;;;;;67.33;34.73;;;1.50;99.90;;;;;;4996509;28;20484;-67
2023/12/07 02:00:23;;;;;;;69.40;36.83;;;1.50;99.90;;;;;;4999301;28;20476;-67
2023/12/07 02:02:52;;;;;;;62.43;32.50;;;1.50;99.90;;;;;;4998100;28;20488;-67
2023/12/07 02:05:20;;;;;;;64.33;34.10;;;1.50;99.90;;;;;;4998033;28;20606;-68
2023/12/07 02:07:48;;;;;;;63.90;34.47;;;1.50;99.90;;;;;;5001438;28;20507;-67
2023/12/07 02:10:17;;;;;;;58.90;31.10;;;1.50;99.90;;;;;;4999004;28;20555;-67
2023/12/07 02:12:45;;;;;;;61.30;32.00;;;1.50;99.90;;;;;;4995042;28;20587;-67
2023/12/07 02:15:13;;;;;;;66.50;34.33;;;1.50;99.90;;;;;;4992680;28;20575;-67
2023/12/07 02:17:52;;;;;;;67.70;33.97;;;1.50;99.90;;;;;;4994518;28;20583;-67
2023/12/07 02:20:25;;;;;;;70.63;35.80;;;1.50;99.90;;;;;;4995897;28;20473;-67
2023/12/07 02:22:55;;;;;;;68.27;34.33;;;1.50;99.90;;;;;;4996168;28;20546;-67
2023/12/07 02:25:30;;;;;;;72.27;32.90;;;1.50;99.90;;;;;;4991608;28;21075;-67
2023/12/07 02:27:59;;;;;;;74.47;34.20;;;1.50;99.90;;;;;;4994663;28;20538;-68
2023/12/07 02:30:27;;;;;;;76.73;34.10;;;1.50;99.90;;;;;;4988911;28;21088;-67
2023/12/07 02:32:55;;;;;;;69.00;33.40;;;1.50;99.90;;;;;;4990905;28;20586;-67
2023/12/07 02:35:26;;;;;;;66.70;35.10;;;1.50;99.90;;;;;;4985168;28;22251;-67
2023/12/07 02:37:55;;;;;;;72.27;33.27;;;1.50;99.90;;;;;;4992334;28;20494;-67
2023/12/07 02:40:24;;;;;;;67.67;33.03;;;1.50;99.90;;;;;;4984641;28;20856;-67
2023/12/07 02:42:54;;;;;;;71.60;36.13;;;1.50;99.90;;;;;;4987971;28;20588;-67
2023/12/07 02:45:25;;;;;;;66.00;32.83;;;1.50;99.90;;;;;;4985560;28;20499;-68
2023/12/07 02:47:53;;;;;;;70.60;34.03;;;1.50;99.90;;;;;;4987994;28;20528;-67
2023/12/07 02:50:21;;;;;;;65.77;32.73;;;1.50;99.90;;;;;;4990130;28;20477;-68
2023/12/07 02:52:49;;;;;;;62.37;33.03;;;1.50;99.90;;;;;;4988442;28;20467;-68
2023/12/07 02:55:17;;;;;;;60.77;31.20;;;1.60;99.90;;;;;;5011031;28;20555;-67
2023/12/07 02:57:47;;;;;;;60.87;32.20;;;1.60;99.90;;;;;;5008184;28;20489;-67
2023/12/07 03:00:16;;;;;;;62.90;33.00;;;1.60;99.90;;;;;;4993494;28;20499;-67
2023/12/07 03:02:47;;;;;;;70.50;33.90;;;1.60;99.90;;;;;;4991181;28;20538;-67
2023/12/07 03:05:15;;;;;;;64.77;33.03;;;1.60;99.90;;;;;;4990844;28;20520;-67
2023/12/07 03:07:43;;;;;;;66.07;33.63;;;1.60;99.90;;;;;;4989455;28;20491;-67
2023/12/07 03:10:11;;;;;;;60.27;31.83;;;1.60;99.90;;;;;;4989436;28;20903;-67
2023/12/07 03:12:40;;;;;;;63.77;32.30;;;1.60;99.90;;;;;;4981689;28;20602;-67
2023/12/07 03:15:10;;;;;;;59.33;31.70;;;1.60;99.90;;;;;;4987600;28;20472;-67
2023/12/07 03:17:38;;;;;;;59.90;31.10;;;1.60;99.90;;;;;;4990211;28;20585;-67
2023/12/07 03:20:10;;;;;;;56.57;31.77;;;1.60;99.90;;;;;;4991395;28;20476;-67
2023/12/07 03:22:38;;;;;;;61.40;32.83;;;1.60;99.90;;;;;;4988339;28;20472;-67
2023/12/07 03:25:06;;;;;;;54.63;30.93;;;1.60;99.90;;;;;;4988663;28;20650;-67
2023/12/07 03:27:34;;;;;;;61.57;30.60;;;1.60;99.90;;;;;;4992814;28;20928;-67
2023/12/07 03:30:03;;;;;;;56.93;30.70;;;1.60;99.90;;;;;;4990442;28;20559;-68
2023/12/07 03:32:31;;;;;;;55.40;31.20;;;1.60;99.90;;;;;;4988357;28;20643;-67
2023/12/07 03:34:59;;;;;;;55.33;31.13;;;1.60;99.90;;;;;;4989050;28;21410;-67
2023/12/07 03:37:28;;;;;;;53.70;30.97;;;1.60;99.90;;;;;;4985745;28;21134;-67
2023/12/07 03:39:56;;;;;;;57.67;31.90;;;1.60;99.90;;;;;;4985115;28;20963;-67
2023/12/07 03:42:24;;;;;;;55.50;31.80;;;1.60;99.90;;;;;;4982564;28;20472;-68
2023/12/07 03:45:12;;;;;;;56.70;30.27;;;1.60;99.90;;;;;;4989775;28;20553;-67
2023/12/07 03:47:40;;;;;;;54.00;30.37;;;1.60;99.90;;;;;;4990203;28;20541;-67
2023/12/07 03:50:09;;;;;;;53.17;31.87;;;1.60;99.90;;;;;;4985381;28;20469;-67
2023/12/07 03:52:38;;;;;;;57.43;31.80;;;1.60;99.90;;;;;;4985336;28;20599;-67
2023/12/07 03:55:07;;;;;;;52.40;31.00;;;1.60;99.90;;;;;;4991703;28;20476;-67
2023/12/07 03:57:35;;;;;;;53.30;32.97;;;1.60;99.90;;;;;;4989922;28;20508;-67
2023/12/07 04:00:12;;;;;;;53.73;31.87;;;1.60;99.90;;;;;;4987528;28;20476;-67
2023/12/07 04:02:40;;;;;;;53.73;31.00;;;1.60;99.90;;;;;;4989334;28;20957;-67
2023/12/07 04:05:08;;;;;;;55.13;31.40;;;1.60;99.90;;;;;;4988031;28;20492;-67
2023/12/07 04:07:37;;;;;;;55.50;30.43;;;1.70;99.90;;;;;;4987039;28;20492;-67
2023/12/07 04:10:06;;;;;;;55.63;32.43;;;1.60;99.90;;;;;;4986684;28;20552;-67
2023/12/07 04:12:34;;;;;;;52.60;31.73;;;1.70;99.90;;;;;;4987461;28;20484;-68
2023/12/07 04:15:02;;;;;;;50.93;30.60;;;1.70;99.90;;;;;;4987009;28;20509;-68
2023/12/07 04:17:30;;;;;;;50.30;30.53;;;1.70;99.90;;;;;;4983600;28;20504;-67
2023/12/07 04:19:58;;;;;;;49.20;31.47;;;1.70;99.90;;;;;;4985397;28;20535;-67
2023/12/07 04:22:26;;;;;;;51.00;31.93;;;1.70;99.90;;;;;;4980987;28;20472;-67
2023/12/07 04:24:56;;;;;;;55.80;30.50;;;1.70;99.90;;;;;;4985386;28;20507;-67
2023/12/07 04:27:24;;;;;;;51.50;29.63;;;1.70;99.90;;;;;;4989140;28;20487;-67
2023/12/07 04:29:52;;;;;;;52.97;30.70;;;1.70;99.90;;;;;;4985125;28;20475;-67
2023/12/07 04:32:20;;;;;;;54.67;32.10;;;1.70;99.90;;;;;;4989984;28;21158;-67
2023/12/07 04:34:48;;;;;;;47.27;29.00;;;1.70;99.90;;;;;;4982480;28;20472;-67
2023/12/07 04:37:16;;;;;;;52.20;30.67;;;1.70;99.90;;;;;;4986603;28;20503;-67
2023/12/07 04:39:44;;;;;;;55.40;31.37;;;1.70;99.90;;;;;;4988901;28;20484;-67
2023/12/07 04:42:14;;;;;;;46.43;28.90;;;1.70;99.90;;;;;;4983052;28;20947;-67
2023/12/07 04:44:42;;;;;;;48.23;29.33;;;1.70;99.90;;;;;;4983208;28;20599;-67
2023/12/07 04:47:10;;;;;;;55.23;30.47;;;1.70;99.90;;;;;;4986565;28;20485;-67
2023/12/07 04:49:38;;;;;;;56.63;32.57;;;1.70;99.90;;;;;;4984091;28;20483;-67
2023/12/07 04:52:06;;;;;;;49.87;29.40;;;1.60;99.90;;;;;;4993821;28;20472;-67
2023/12/07 04:54:34;;;;;;;49.93;30.43;;;1.70;99.90;;;;;;4992753;28;21019;-67
2023/12/07 04:57:02;;;;;;;50.03;30.90;;;1.70;99.90;;;;;;4990998;28;20493;-67
2023/12/07 04:59:31;;;;;;;46.43;30.10;;;1.70;99.90;;;;;;4990081;28;20472;-67
2023/12/07 05:01:59;;;;;;;53.60;32.80;;;1.70;99.90;;;;;;4993220;28;20480;-67
2023/12/07 05:04:27;;;;;;;52.00;28.97;;;1.70;99.90;;;;;;5003504;28;20523;-68
2023/12/07 05:06:55;;;;;;;50.27;30.70;;;1.70;99.90;;;;;;5007977;28;20487;-69
2023/12/07 05:09:23;;;;;;;50.70;29.33;;;1.70;99.90;;;;;;4989710;28;20572;-67
2023/12/07 05:11:51;;;;;;;51.03;31.70;;;1.70;99.90;;;;;;4983774;28;20477;-67
2023/12/07 05:14:19;;;;;;;52.40;31.60;;;1.70;99.90;;;;;;4983022;28;20567;-67
2023/12/07 05:16:52;;;;;;;47.87;31.13;;;1.70;99.90;;;;;;4983430;28;20574;-68
2023/12/07 05:19:21;;;;;;;46.40;29.13;;;1.70;99.90;;;;;;4981862;28;20484;-68
2023/12/07 05:21:49;;;;;;;53.70;30.67;;;1.70;99.90;;;;;;4989297;28;20492;-67
2023/12/07 05:24:17;;;;;;;51.70;30.23;;;1.70;99.90;;;;;;4988754;28;21056;-68
2023/12/07 05:26:46;;;;;;;44.93;29.87;;;1.70;99.90;;;;;;4987384;28;20501;-68
2023/12/07 05:29:16;;;;;;;45.60;29.40;;;1.70;99.90;;;;;;4980468;28;20506;-67
2023/12/07 05:31:44;;;;;;;47.00;29.90;;;1.70;99.90;;;;;;4983219;28;20869;-67
2023/12/07 05:34:13;;;;;;;49.60;30.53;;;1.70;99.90;;;;;;4984844;28;20956;-68
2023/12/07 05:36:41;;;;;;;48.90;29.30;;;1.80;99.90;;;;;;4984960;28;20496;-67
2023/12/07 05:39:11;;;;;;;48.67;30.00;;;1.80;99.90;;;;;;4983668;28;20503;-67
2023/12/07 05:41:38;;;;;;;47.63;30.40;;;1.80;99.90;;;;;;4987520;28;20468;-67
2023/12/07 05:44:07;;;;;;;48.50;29.37;;;1.80;99.90;;;;;;4986420;28;22583;-68
2023/12/07 05:46:37;;;;;;;44.90;28.50;;;1.80;99.90;;;;;;4986930;28;20930;-68
2023/12/07 05:49:05;;;;;;;49.10;30.60;;;1.70;99.90;;;;;;4985665;28;20498;-68
2023/12/07 05:51:35;;;;;;;49.10;30.20;;;1.80;99.90;;;;;;4983172;28;21379;-67
2023/12/07 05:54:03;;;;;;;45.23;28.43;;;1.80;99.90;;;;;;4983270;28;20468;-67
2023/12/07 05:56:32;;;;;;;46.07;28.97;;;1.80;99.90;;;;;;4985480;28;21858;-67
2023/12/07 05:59:00;;;;;;;43.30;27.20;;;1.80;99.90;;;;;;4986821;28;20488;-66
2023/12/07 06:01:28;;;;;;;44.90;29.60;;;1.80;99.90;;;;;;4984409;28;21535;-66
2023/12/07 06:03:56;;;;;;;45.83;29.00;;;1.80;99.90;;;;;;4984559;28;20468;-66
2023/12/07 06:06:24;;;;;;;44.37;27.30;;;1.80;99.90;;;;;;4990616;28;20497;-66
2023/12/07 06:08:54;;;;;;;44.23;29.43;;;1.80;99.90;;;;;;4987322;28;20580;-66
2023/12/07 06:11:22;;;;;;;48.60;30.30;;;1.70;99.90;;;;;;4985743;28;20471;-67
2023/12/07 06:13:49;;;;;;;43.77;27.47;;;1.70;99.90;;;;;;4984971;28;20610;-66
2023/12/07 06:16:18;;;;;;;43.23;27.37;;;1.70;99.90;;;;;;4985723;28;20583;-66
2023/12/07 06:18:46;;;;;;;48.17;28.27;;;1.80;99.90;;;;;;4982241;28;20653;-67
2023/12/07 06:21:15;;;;;;;41.87;28.30;;;1.80;99.90;;;;;;4981822;28;20492;-67
2023/12/07 06:23:46;;;;;;;42.67;27.77;;;1.80;99.90;;;;;;4982187;28;20500;-67
2023/12/07 06:26:15;;;;;;;43.93;28.30;;;1.70;99.90;;;;;;4983594;28;20516;-68
2023/12/07 06:28:44;;;;;;;48.00;29.90;;;1.70;99.90;;;;;;4990623;28;21111;-67
2023/12/07 06:31:14;;;;;;;43.43;28.47;;;1.70;99.90;;;;;;4989202;28;20563;-67
2023/12/07 06:33:43;;;;;;;42.87;27.70;;;1.70;99.90;;;;;;4989507;28;20826;-67
2023/12/07 06:36:11;;;;;;;42.30;28.00;;;1.70;99.90;;;;;;4993886;28;20503;-67
2023/12/07 06:38:39;;;;;;;41.80;27.43;;;1.70;99.90;;;;;;4987809;28;21077;-67
2023/12/07 06:41:07;;;;;;;43.17;28.10;;;1.70;99.90;;;;;;4987508;28;20960;-68
2023/12/07 06:43:36;;;;;;;45.40;27.77;;;1.70;99.90;;;;;;4991717;28;20598;-67
2023/12/07 06:46:05;;;;;;;41.57;27.50;;;1.70;99.90;;;;;;4993344;28;20953;-67
2023/12/07 06:48:33;;;;;;;45.10;28.10;;;1.70;99.90;;;;;;4993386;28;21055;-67
2023/12/07 06:51:01;;;;;;;43.40;27.30;;;1.70;99.90;;;;;;4985252;28;21020;-67
2023/12/07 06:53:29;;;;;;;42.77;29.43;;;1.80;99.90;;;;;;4994495;28;21009;-67
2023/12/07 06:55:57;;;;;;;47.23;28.70;;;1.80;99.90;;;;;;4994072;28;20598;-68
2023/12/07 06:58:25;;;;;;;43.93;26.67;;;1.80;99.90;;;;;;4988309;28;20490;-69
2023/12/07 07:00:54;;;;;;;44.23;28.73;;;1.80;99.90;;;;;;4992300;28;20556;-67
2023/12/07 07:03:22;;;;;;;45.97;28.70;;;1.80;99.90;;;;;;4991083;28;20819;-67
2023/12/07 07:05:50;;;;;;;44.00;29.07;;;1.80;99.90;;;;;;4989610;28;20850;-67
2023/12/07 07:08:19;;;;;;;43.03;27.57;;;1.80;99.90;;;;;;4996897;28;20477;-67
2023/12/07 07:10:47;;;;;;;41.23;27.87;;;1.80;99.90;;;;;;4996065;28;20576;-67
2023/12/07 07:13:16;;;;;;;40.83;28.53;;;1.80;99.90;;;;;;4999277;28;20590;-67
2023/12/07 07:15:45;;;;;;;41.07;26.83;;;1.80;99.90;;;;;;5018085;28;20473;-68
2023/12/07 07:18:14;;;;;;;42.70;27.20;;;1.80;99.90;;;;;;5014554;28;20488;-67
2023/12/07 07:20:44;;;;;;;41.57;27.40;;;1.80;99.90;;;;;;5001360;28;21010;-67
2023/12/07 07:23:13;;;;;;;42.27;26.33;;;1.80;99.90;;;;;;4996028;28;20469;-67
2023/12/07 07:25:41;;;;;;;44.50;28.73;;;1.80;99.90;;;;;;4995785;28;20468;-67
2023/12/07 07:28:09;;;;;;;44.50;27.77;;;1.90;99.90;;;;;;4997020;28;20788;-67
2023/12/07 07:30:38;;;;;;;42.87;28.80;;;1.80;99.90;;;;;;4996335;28;20982;-67
2023/12/07 07:33:06;;;;;;;46.00;29.53;;;1.80;99.90;;;;;;4993732;28;20568;-67
2023/12/07 07:35:36;;;;;;;44.90;29.23;;;1.90;99.90;;;;;;4994969;28;20477;-67
2023/12/07 07:38:04;;;;;;;50.10;30.93;;;1.90;99.90;;;;;;4989642;28;21154;-67
2023/12/07 07:40:31;;;;;;;47.00;29.30;;;1.80;99.90;;;;;;4994255;28;20569;-67
2023/12/07 07:43:00;;;;;;;49.77;31.87;;;1.80;99.90;;;;;;4995314;28;20559;-68
2023/12/07 07:45:28;;;;;;;45.03;29.07;;;1.80;99.90;;;;;;4992205;28;20841;-67
2023/12/07 07:47:56;;;;;;;42.50;27.90;;;1.80;99.90;;;;;;4992464;28;22026;-67
2023/12/07 07:50:24;;;;;;;45.90;30.07;;;1.80;99.90;;;;;;4996887;28;20504;-67
2023/12/07 07:52:55;;;;;;;45.13;29.13;;;1.80;99.90;;;;;;4990441;28;20469;-67
2023/12/07 07:55:22;;;;;;;49.37;28.33;;;1.90;99.90;;;;;;4995326;28;20999;-67
2023/12/07 07:57:50;;;;;;;44.37;27.93;;;1.80;99.90;;;;;;4991409;28;20906;-67
2023/12/07 08:00:19;;;;;;;40.07;27.10;;;1.90;99.90;;;;;;4992836;28;20486;-68
2023/12/07 08:02:47;;;;;;;42.23;28.23;;;1.90;99.90;;;;;;4992977;28;21008;-67
2023/12/07 08:05:15;;;;;;;43.00;28.17;;;1.90;99.90;;;;;;4993930;28;20576;-67
2023/12/07 08:07:43;;;;;;;44.77;28.70;;;1.90;99.90;;;;;;4990501;28;20903;-67
2023/12/07 08:10:13;;;;;;;42.80;28.10;;;1.90;99.90;;;;;;4992335;28;20484;-67
2023/12/07 08:12:41;;;;;;;45.37;29.90;;;1.90;99.90;;;;;;4991597;28;20938;-67
2023/12/07 08:15:10;;;;;;;45.10;30.37;;;1.90;99.90;;;;;;4993112;28;20483;-67
2023/12/07 08:17:40;;;;;;;45.57;29.07;;;1.90;99.90;;;;;;4994286;28;20492;-67
2023/12/07 08:20:10;;;;;;;42.57;28.47;;;1.90;99.90;;;;;;4991541;28;20503;-67
2023/12/07 08:22:38;;;;;;;45.93;29.70;;;1.90;99.90;;;;;;4992931;28;20952;-67
2023/12/07 08:25:08;;;;;;;41.00;28.17;;;2.00;99.90;;;;;;4991376;28;21130;-67
2023/12/07 08:27:40;;;;;;;45.03;28.77;;;2.00;99.90;;;;;;4997154;28;20485;-67
2023/12/07 08:30:10;;;;;;;46.63;28.30;;;2.00;99.90;;;;;;4995658;28;20477;-67
2023/12/07 08:32:38;;;;;;;45.87;29.00;;;2.00;99.90;;;;;;4993029;28;20490;-67
2023/12/07 08:35:08;;;;;;;46.43;30.73;;;2.00;99.90;;;;;;4990929;28;21957;-68
2023/12/07 08:37:39;;;;;;;43.80;29.77;;;2.00;99.90;;;;;;4992326;28;20569;-67
2023/12/07 08:40:11;;;;;;;46.07;29.50;;;2.10;99.90;;;;;;4983165;28;22379;-67
2023/12/07 08:42:40;;;;;;;50.43;31.70;;;2.10;99.90;;;;;;4989608;28;20484;-67
2023/12/07 08:45:09;;;;;;;46.60;30.97;;;2.10;99.90;;;;;;4989384;28;20468;-67
2023/12/07 08:47:37;;;;;;;43.70;28.60;;;2.10;99.90;;;;;;4987516;28;20501;-67
2023/12/07 08:50:07;;;;;;;45.10;29.10;;;2.10;99.90;;;;;;4996542;28;20473;-67
2023/12/07 08:52:35;;;;;;;45.77;30.03;;;2.10;99.90;;;;;;4993692;28;20483;-67
2023/12/07 08:55:16;;;;;;;43.73;28.50;;;2.10;99.90;;;;;;4997247;28;20491;-67
2023/12/07 08:57:46;;;;;;;46.30;29.40;;;2.20;99.90;;;;;;4996873;28;20488;-67
2023/12/07 09:00:15;;;;;;;45.00;28.20;;;2.20;99.90;;;;;;4995966;28;20530;-67
2023/12/07 09:02:43;;;;;;;42.33;28.97;;;2.20;99.90;;;;;;4995138;28;20498;-67
2023/12/07 09:05:15;;;;;;;40.57;28.23;;;2.30;99.90;;;;;;4996767;28;20472;-67
2023/12/07 09:07:44;;;;;;;42.53;29.33;;;2.30;99.90;;;;;;4993010;28;20496;-67
2023/12/07 09:10:12;;;;;;;47.87;28.20;;;2.30;99.90;;;;;;4982963;28;20483;-67
2023/12/07 09:12:40;;;;;;;42.73;28.67;;;2.30;99.90;;;;;;4988446;28;20621;-67
2023/12/07 09:15:11;;;;;;;46.17;27.23;;;2.40;99.90;;;;;;4987445;28;20476;-67
2023/12/07 09:17:39;;;;;;;46.80;29.00;;;2.40;99.90;;;;;;4984961;28;20496;-67
2023/12/07 09:20:11;;;;;;;48.40;31.40;;;2.40;99.90;;;;;;4991506;28;20539;-67
2023/12/07 09:22:41;;;;;;;46.10;30.57;;;2.40;99.90;;;;;;4990886;28;22637;-67
2023/12/07 09:25:10;;;;;;;45.90;28.90;;;2.40;99.90;;;;;;4989333;28;20472;-67
2023/12/07 09:27:38;;;;;;;47.50;30.70;;;2.50;99.90;;;;;;5004774;28;20496;-72
2023/12/07 09:30:10;;;;;;;51.50;30.70;;;2.50;99.90;;;;;;5014681;28;20536;-68
2023/12/07 09:32:42;;;;;;;46.13;30.40;;;2.50;99.90;;;;;;4995581;28;20926;-67
2023/12/07 09:35:14;;;;;;;47.93;29.40;;;2.50;99.90;;;;;;4995802;28;20504;-67
2023/12/07 09:37:43;;;;;;;48.17;29.93;;;2.50;99.90;;;;;;4992963;28;20494;-67
2023/12/07 09:40:17;;;;;;;49.87;31.47;;;2.60;99.90;;;;;;4991096;28;20625;-67
2023/12/07 09:42:46;;;;;;;49.20;30.83;;;2.60;99.90;;;;;;4993688;28;20467;-67
2023/12/07 09:45:16;;;;;;;50.57;32.43;;;2.60;99.90;;;;;;4995688;28;20555;-67
2023/12/07 09:47:49;;;;;;;46.47;30.90;;;2.60;99.90;;;;;;4988016;28;20630;-67
2023/12/07 09:50:21;;;;;;;44.93;30.10;;;2.70;99.90;;;;;;4990075;28;20475;-67
2023/12/07 09:52:50;;;;;;;50.57;32.30;;;2.60;99.90;;;;;;4994947;28;20473;-67
2023/12/07 09:55:33;;;;;;;47.60;32.20;;;2.70;99.90;;;;;;4994058;28;20830;-67
2023/12/07 09:58:01;;;;;;;53.23;32.77;;;2.70;99.90;;;;;;4991416;28;20495;-67
2023/12/07 10:00:29;;;;;;;48.50;31.10;;;2.70;99.90;;;;;;4992383;28;20479;-67
2023/12/07 10:02:59;;;;;;;54.47;34.67;;;2.80;99.90;;;;;;4994100;28;21042;-67
2023/12/07 10:05:27;;;;;;;54.53;34.10;;;2.80;99.90;;;;;;4989696;28;20484;-67
2023/12/07 10:07:55;;;;;;;52.53;33.70;;;2.80;99.90;;;;;;4986080;28;20515;-67
2023/12/07 10:10:23;;;;;;;53.63;34.40;;;2.80;99.90;;;;;;4996556;28;20496;-67
2023/12/07 10:12:54;;;;;;;52.77;34.23;;;2.90;99.90;;;;;;4995702;28;20476;-68
2023/12/07 10:15:23;;;;;;;57.53;36.37;;;2.90;99.90;;;;;;4996388;28;20849;-67
2023/12/07 10:17:53;;;;;;;50.03;32.80;;;2.90;99.90;;;;;;4994757;28;20492;-67
2023/12/07 10:20:24;;;;;;;54.97;34.20;;;2.90;99.90;;;;;;4996598;28;20567;-67
2023/12/07 10:23:03;;;;;;;52.67;33.03;;;2.90;99.90;;;;;;4995204;28;20950;-67
2023/12/07 10:25:31;;;;;;;50.43;32.70;;;2.90;99.90;;;;;;4995490;28;20472;-67
2023/12/07 10:28:00;;;;;;;47.67;32.00;;;2.90;99.90;;;;;;4995120;28;20490;-67
2023/12/07 10:30:29;;;;;;;44.47;31.93;;;2.90;99.90;;;;;;4994960;28;20582;-67
2023/12/07 10:32:56;;;;;;;46.50;30.50;;;2.90;99.90;;;;;;4990859;28;20595;-67
2023/12/07 10:35:26;;;;;;;47.53;30.03;;;2.90;99.90;;;;;;4992246;28;20468;-67
2023/12/07 10:37:54;;;;;;;51.97;33.00;;;2.90;99.90;;;;;;4987674;28;21040;-67
2023/12/07 10:40:22;;;;;;;50.03;31.73;;;2.90;99.90;;;;;;4995866;28;20929;-67
2023/12/07 10:42:57;;;;;;;46.17;30.53;;;2.90;99.90;;;;;;4991271;28;20476;-67
2023/12/07 10:45:27;;;;;;;50.23;32.13;;;2.80;99.90;;;;;;4991059;28;20588;-67
2023/12/07 10:47:59;;;;;;;52.23;31.00;;;2.80;99.90;;;;;;4988603;28;20500;-67
2023/12/07 10:50:31;;;;;;;53.40;32.70;;;2.80;99.90;;;;;;4997919;28;21092;-67
2023/12/07 10:53:05;;;;;;;48.17;31.33;;;2.80;99.90;;;;;;4995636;28;20471;-67
2023/12/07 10:55:42;;;;;;;52.10;31.57;;;2.70;99.90;;;;;;4996595;28;21036;-67
2023/12/07 10:58:12;;;;;;;52.77;31.70;;;2.70;99.90;;;;;;4992747;28;20503;-67
2023/12/07 11:00:46;;;;;;;46.20;29.93;;;2.70;99.90;;;;;;4995734;28;20473;-67
2023/12/07 11:03:17;;;;;;;48.00;31.07;;;2.70;99.90;;;;;;4995004;28;20887;-67
2023/12/07 11:05:48;;;;;;;46.03;28.90;;;2.70;99.90;;;;;;4994757;28;20499;-67
2023/12/07 11:08:26;;;;;;;51.80;30.87;;;2.70;99.90;;;;;;4988860;28;20496;-67
2023/12/07 11:11:03;;;;;;;45.83;29.23;;;2.70;99.90;;;;;;4991528;28;20558;-67
2023/12/07 11:13:34;;;;;;;48.60;30.03;;;2.70;99.90;;;;;;4993359;28;20473;-67
2023/12/07 11:16:04;;;;;;;45.80;29.10;;;2.70;99.90;;;;;;4987218;28;20969;-67
2023/12/07 11:18:32;;;;;;;45.90;29.83;;;2.70;99.90;;;;;;4989614;28;20512;-67
2023/12/07 11:21:02;;;;;;;49.67;31.30;;;2.70;99.90;;;;;;4997438;28;21096;-67
2023/12/07 11:23:31;;;;;;;50.53;30.13;;;2.70;99.90;;;;;;4996253;28;20487;-67
2023/12/07 11:26:00;;;;;;;48.03;28.90;;;2.70;99.90;;;;;;4996428;28;21027;-67
2023/12/07 11:28:39;;;;;;;44.77;29.03;;;2.70;99.90;;;;;;4994344;28;21088;-67
2023/12/07 11:31:08;;;;;;;44.77;28.53;;;2.70;99.90;;;;;;4992116;28;20572;-67
2023/12/07 11:33:39;;;;;;;48.67;29.70;;;2.70;99.90;;;;;;4993808;28;21049;-67
2023/12/07 11:36:10;;;;;;;41.53;28.80;;;2.70;99.90;;;;;;4991877;28;20984;-67
2023/12/07 11:38:40;;;;;;;40.57;26.97;;;2.70;99.90;;;;;;5008480;28;20575;-69
2023/12/07 11:41:08;;;;;;;43.53;28.57;;;2.70;99.90;;;;;;5015959;28;20473;-68
2023/12/07 11:43:46;;;;;;;43.53;26.87;;;2.60;99.90;;;;;;4998681;28;20496;-68
2023/12/07 11:46:15;;;;;;;40.70;26.90;;;2.60;99.90;;;;;;4995425;28;21379;-68
2023/12/07 11:48:49;;;;;;;41.17;25.70;;;2.70;99.90;;;;;;4994767;28;20896;-68
2023/12/07 11:51:18;;;;;;;41.60;27.47;;;2.70;99.90;;;;;;4986862;28;20504;-67
2023/12/07 11:53:48;;;;;;;39.27;24.90;;;2.70;99.90;;;;;;4991719;28;20571;-68
2023/12/07 11:56:21;;;;;;;38.33;26.20;;;2.70;99.90;;;;;;4992583;28;20503;-67
2023/12/07 11:58:50;;;;;;;37.87;26.10;;;2.70;99.90;;;;;;4991857;28;20511;-68
2023/12/07 12:01:18;;;;;;;36.63;24.50;;;2.80;99.90;;;;;;4993334;28;20472;-68
2023/12/07 12:03:46;;;;;;;36.30;24.80;;;2.80;99.90;;;;;;4992496;28;20484;-67
2023/12/07 12:06:14;;;;;;;34.50;23.53;;;2.80;99.90;;;;;;4996662;28;20493;-68
2023/12/07 12:08:44;;;;;;;38.57;24.10;;;2.80;99.90;;;;;;4994726;28;20493;-67
2023/12/07 12:11:12;;;;;;;37.67;24.90;;;2.80;99.90;;;;;;4993433;28;20532;-67
2023/12/07 12:13:41;;;;;;;35.20;22.73;;;2.80;99.90;;;;;;4994755;28;20527;-67
2023/12/07 12:16:10;;;;;;;38.00;24.73;;;2.80;99.90;;;;;;4992468;28;21258;-68
2023/12/07 12:18:38;;;;;;;34.07;23.87;;;2.90;99.90;;;;;;4993626;28;21080;-67
2023/12/07 12:21:09;;;;;;;39.13;24.00;;;2.90;99.90;;;;;;4993286;28;20469;-67
2023/12/07 12:23:39;;;;;;;33.63;23.90;;;2.90;99.90;;;;;;4994825;28;20481;-67
2023/12/07 12:26:10;;;;;;;35.83;24.23;;;2.90;99.90;;;;;;4994099;28;20484;-67
2023/12/07 12:28:42;;;;;;;36.80;24.70;;;2.90;99.90;;;;;;4987522;28;21023;-67
2023/12/07 12:31:12;;;;;;;36.30;23.63;;;2.90;99.90;;;;;;4993354;28;20484;-68
2023/12/07 12:33:41;;;;;;;34.43;22.73;;;3.00;99.90;;;;;;4989281;28;20542;-67
2023/12/07 12:36:10;;;;;;;33.27;23.77;;;3.00;99.90;;;;;;4990322;28;21512;-67
2023/12/07 12:38:40;;;;;;;38.90;25.07;;;3.00;99.90;;;;;;4990520;28;20489;-67
2023/12/07 12:41:13;;;;;;;32.57;23.37;;;3.00;99.90;;;;;;4994009;28;20527;-67
2023/12/07 12:43:44;;;;;;;34.77;22.80;;;2.90;99.90;;;;;;4991091;28;20499;-67
2023/12/07 12:46:13;;;;;;;34.60;23.93;;;2.90;99.90;;;;;;4988908;28;20886;-68